Time;durP1;ratioP1;P1;durP2;ratioP2;P2;SDS_P1;SDS_P2;PMS_P1;PMS_P2;Temp;Humidity;BMP_temperature;BMP_pressure;BME280_temperature;BME280_humidity;BME280_pressure;Samples;Min_cycle;Max_cycle;Signal;HPM_P1;HPM_P2
2023/09/22 00:00:35;;;;;;;20.07;10.23;;;;;;;11.27;100.00;99769.81;4901833;29;20276;-96
2023/09/22 00:03:01;;;;;;;19.05;10.05;;;;;;;11.19;100.00;99767.75;4926799;29;20035;-96
2023/09/22 00:05:26;;;;;;;17.87;9.93;;;;;;;11.04;100.00;99744.63;4929033;29;20127;-96
2023/09/22 00:07:51;;;;;;;18.73;9.57;;;;;;;11.13;100.00;99766.25;4920218;29;20040;-96
2023/09/22 00:10:17;;;;;;;19.07;9.90;;;;;;;11.10;100.00;99766.81;4957285;28;20020;-96
2023/09/22 00:12:43;;;;;;;19.50;9.23;;;;;;;11.02;100.00;99752.94;4943885;28;20296;-96
2023/09/22 00:15:09;;;;;;;19.75;9.43;;;;;;;11.03;100.00;99767.94;4941123;28;20028;-96
2023/09/22 00:17:35;;;;;;;17.90;8.20;;;;;;;10.96;100.00;99755.97;4949396;29;20037;-96
2023/09/22 00:20:01;;;;;;;14.97;7.73;;;;;;;10.83;100.00;99754.78;4952133;29;20307;-92
2023/09/22 00:22:27;;;;;;;21.75;7.85;;;;;;;10.87;100.00;99755.81;4927374;29;20542;-96
2023/09/22 00:24:52;;;;;;;18.90;8.50;;;;;;;10.88;100.00;99744.00;4937537;29;20016;-96
2023/09/22 00:27:18;;;;;;;15.30;7.60;;;;;;;10.81;100.00;99747.03;4937256;29;20164;-96
2023/09/22 00:29:43;;;;;;;15.13;8.00;;;;;;;10.85;100.00;99753.44;4936950;29;20024;-96
2023/09/22 00:32:10;;;;;;;13.87;7.40;;;;;;;10.79;100.00;99756.44;4936940;29;20432;-96
2023/09/22 00:34:35;;;;;;;14.88;8.32;;;;;;;10.76;100.00;99757.81;4936606;29;20031;-96
2023/09/22 00:37:00;;;;;;;15.57;7.37;;;;;;;10.83;100.00;99773.53;4936189;29;20122;-96
2023/09/22 00:39:38;;;;;;;24.40;8.33;;;;;;;10.82;100.00;99782.66;4936651;29;20059;-96
2023/09/22 00:42:08;;;;;;;17.48;7.47;;;;;;;10.79;100.00;99777.88;4935993;29;20055;-96
2023/09/22 00:44:33;;;;;;;20.02;8.70;;;;;;;10.74;100.00;99770.69;4936086;29;20028;-96
2023/09/22 00:47:00;;;;;;;23.70;8.77;;;;;;;10.72;100.00;99762.94;4937270;29;20035;-96
2023/09/22 00:49:26;;;;;;;21.67;9.00;;;;;;;10.70;100.00;99757.06;4936409;29;20059;-96
2023/09/22 00:51:52;;;;;;;20.58;8.40;;;;;;;10.71;100.00;99765.88;4933436;29;20064;-96
2023/09/22 00:54:18;;;;;;;19.30;8.83;;;;;;;10.72;100.00;99760.25;4936585;29;20028;-95
2023/09/22 00:56:46;;;;;;;24.45;8.80;;;;;;;10.57;100.00;99733.66;4936242;29;20031;-96
2023/09/22 00:59:13;;;;;;;24.00;8.88;;;;;;;10.61;100.00;99745.38;4936589;29;20412;-96
2023/09/22 01:01:39;;;;;;;22.15;8.82;;;;;;;10.63;100.00;99750.47;4935606;29;20133;-96
2023/09/22 01:04:05;;;;;;;21.75;8.90;;;;;;;10.61;100.00;99750.72;4935989;29;20043;-96
2023/09/22 01:06:32;;;;;;;23.43;9.53;;;;;;;10.63;100.00;99755.81;4926297;29;20080;-96
2023/09/22 01:08:57;;;;;;;22.23;8.63;;;;;;;10.54;100.00;99747.59;4917833;29;20024;-96
2023/09/22 01:11:23;;;;;;;26.27;8.97;;;;;;;10.60;100.00;99757.16;4925020;29;20031;-96
2023/09/22 01:13:48;;;;;;;30.42;9.93;;;;;;;10.66;100.00;99761.41;4937898;29;20024;-96
2023/09/22 01:16:14;;;;;;;26.57;9.57;;;;;;;10.51;100.00;99734.78;4948592;28;20036;-96
2023/09/22 01:18:39;;;;;;;24.43;8.57;;;;;;;10.61;100.00;99764.13;4946299;28;20036;-96
2023/09/22 01:21:05;;;;;;;34.22;9.73;;;;;;;10.57;100.00;99763.91;4935889;29;20484;-96
2023/09/22 01:23:30;;;;;;;28.03;9.40;;;;;;;10.51;100.00;99753.53;4938347;29;20016;-96
2023/09/22 01:25:55;;;;;;;26.73;9.83;;;;;;;10.54;100.00;99769.03;4938401;29;20110;-96
2023/09/22 01:28:21;;;;;;;26.57;10.03;;;;;;;10.48;100.00;99741.50;4917207;29;20035;-96
2023/09/22 01:31:10;;;;;;;28.33;9.88;;;;;;;10.53;100.00;99748.69;4929635;29;20024;-96
2023/09/22 01:33:36;;;;;;;24.52;9.32;;;;;;;10.51;100.00;99750.84;4936043;29;20026;-96
2023/09/22 01:36:01;;;;;;;24.10;8.87;;;;;;;10.43;100.00;99747.69;4936040;29;20080;-96
2023/09/22 01:38:27;;;;;;;26.33;9.40;;;;;;;10.38;100.00;99731.69;4936078;29;20360;-96
2023/09/22 01:40:54;;;;;;;27.65;9.32;;;;;;;10.43;100.00;99746.91;4936047;29;20508;-96
2023/09/22 01:43:19;;;;;;;26.17;9.85;;;;;;;10.38;100.00;99741.56;4936514;29;20027;-96
2023/09/22 01:45:45;;;;;;;26.70;9.43;;;;;;;10.36;100.00;99743.72;4936193;29;20032;-95
2023/09/22 01:48:10;;;;;;;27.80;9.47;;;;;;;10.25;100.00;99727.75;4935615;29;20082;-96
2023/09/22 01:50:37;;;;;;;27.83;9.20;;;;;;;10.23;100.00;99724.56;4936583;29;20043;-96
2023/09/22 01:53:10;;;;;;;31.53;10.67;;;;;;;10.41;100.00;99744.50;4935788;29;20119;-96
2023/09/22 01:55:40;;;;;;;30.70;10.43;;;;;;;10.41;100.00;99743.72;4935902;29;20390;-96
2023/09/22 01:58:10;;;;;;;29.55;10.07;;;;;;;10.58;100.00;99772.75;4952333;29;20031;-96
2023/09/22 02:00:36;;;;;;;29.73;9.73;;;;;;;10.63;100.00;99766.53;4955694;29;20024;-96
2023/09/22 02:03:02;;;;;;;34.70;10.18;;;;;;;10.52;100.00;99741.72;4943820;29;20506;-96
2023/09/22 02:05:27;;;;;;;29.23;9.95;;;;;;;10.53;100.00;99738.75;4936292;29;20055;-96
2023/09/22 02:07:53;;;;;;;31.83;10.30;;;;;;;10.43;100.00;99728.94;4936428;29;20020;-96
2023/09/22 02:10:19;;;;;;;32.80;10.60;;;;;;;10.47;100.00;99737.22;4936111;29;20648;-96
2023/09/22 02:12:44;;;;;;;29.08;9.23;;;;;;;10.56;100.00;99737.41;4935956;29;20701;-96
2023/09/22 02:15:12;;;;;;;29.40;10.25;;;;;;;10.63;100.00;99745.09;4936261;29;20596;-96
2023/09/22 02:17:38;;;;;;;31.08;10.07;;;;;;;10.39;100.00;99717.22;4938280;29;20476;-96
2023/09/22 02:20:09;;;;;;;31.60;9.87;;;;;;;10.54;100.00;99735.00;4937829;29;20028;-96
2023/09/22 02:22:35;;;;;;;34.60;11.47;;;;;;;10.58;100.00;99743.28;4920038;29;20490;-96
2023/09/22 02:25:04;;;;;;;33.83;11.45;;;;;;;10.75;100.00;99759.69;4942850;29;20403;-96
2023/09/22 02:27:29;;;;;;;39.38;11.30;;;;;;;10.73;100.00;99759.19;4940217;29;20062;-95
2023/09/22 02:29:55;;;;;;;35.23;11.00;;;;;;;10.72;100.00;99752.22;4938673;29;20118;-96
2023/09/22 03:00:46;;;;;;;27.27;10.20;;;;;;;11.00;100.00;99765.84;4914010;29;20051;-93
2023/09/22 03:03:12;;;;;;;32.50;10.35;;;;;;;10.86;100.00;99746.19;4911249;29;20028;-95
2023/09/22 03:05:38;;;;;;;30.50;10.07;;;;;;;10.94;100.00;99744.75;4918526;29;20035;-94
2023/09/22 03:08:04;;;;;;;30.60;10.68;;;;;;;10.89;100.00;99745.59;4904884;29;20111;-94
2023/09/22 03:10:33;;;;;;;29.53;10.53;;;;;;;10.91;100.00;99746.13;4919565;29;20388;-95
2023/09/22 03:12:59;;;;;;;27.27;10.53;;;;;;;10.90;100.00;99747.22;4923179;29;20336;-95
2023/09/22 03:15:24;;;;;;;26.15;8.77;;;;;;;10.98;100.00;99762.63;4928408;29;20032;-94
2023/09/22 03:17:50;;;;;;;28.80;9.40;;;;;;;10.77;100.00;99729.94;4934220;29;20028;-96
2023/09/22 03:20:17;;;;;;;22.20;8.87;;;;;;;10.95;100.00;99757.06;4934710;29;20028;-96
2023/09/22 03:22:44;;;;;;;23.25;8.38;;;;;;;10.96;100.00;99759.44;4922627;29;20025;-95
2023/09/22 03:25:11;;;;;;;24.75;8.90;;;;;;;10.99;100.00;99766.91;4918270;29;20099;-95
2023/09/22 03:27:43;;;;;;;28.70;8.90;;;;;;;10.97;100.00;99766.41;4918825;29;20028;-95
2023/09/22 03:30:10;;;;;;;22.73;8.38;;;;;;;10.89;100.00;99754.44;4919255;29;20024;-95
2023/09/22 03:32:46;;;;;;;28.92;9.75;;;;;;;11.02;100.00;99773.59;4917304;29;20031;-95
2023/09/22 03:35:13;;;;;;;23.95;9.95;;;;;;;11.03;100.00;99769.84;4916060;29;20113;-95
2023/09/22 03:37:40;;;;;;;19.67;8.37;;;;;;;10.95;100.00;99757.88;4919831;29;20031;-95
2023/09/22 03:40:20;;;;;;;27.03;8.87;;;;;;;11.00;100.00;99760.47;4926944;29;20292;-94
2023/09/22 03:42:46;;;;;;;25.58;8.63;;;;;;;11.04;100.00;99766.88;4920973;29;20080;-95
2023/09/22 03:45:21;;;;;;;23.60;8.73;;;;;;;11.05;100.00;99764.97;4924540;29;20024;-94
2023/09/22 03:47:46;;;;;;;19.40;7.68;;;;;;;11.09;100.00;99767.91;4914899;29;20028;-96
2023/09/22 03:50:12;;;;;;;18.83;7.15;;;;;;;11.11;100.00;99761.16;4913243;29;20028;-95
2023/09/22 03:52:40;;;;;;;20.30;8.03;;;;;;;11.09;100.00;99766.00;4913499;29;20020;-96
2023/09/22 03:55:06;;;;;;;14.07;7.65;;;;;;;11.01;100.00;99756.72;4900126;29;20031;-96
2023/09/22 03:57:31;;;;;;;14.07;6.80;;;;;;;11.14;100.00;99783.91;4899842;29;20036;-95
2023/09/22 03:59:56;;;;;;;21.20;7.90;;;;;;;11.15;100.00;99783.63;4899725;29;20127;-96
2023/09/22 04:02:22;;;;;;;17.27;7.90;;;;;;;11.09;100.00;99774.03;4901578;29;20079;-95
2023/09/22 04:04:47;;;;;;;18.70;6.13;;;;;;;11.11;100.00;99777.22;4918570;29;20387;-95
2023/09/22 04:07:14;;;;;;;13.73;6.32;;;;;;;11.06;100.00;99771.94;4917186;29;20516;-95
2023/09/22 04:09:40;;;;;;;15.15;6.28;;;;;;;11.15;100.00;99785.50;4916978;29;20107;-95
2023/09/22 04:12:06;;;;;;;13.52;6.55;;;;;;;11.14;100.00;99790.06;4917792;29;20107;-95
2023/09/22 04:14:33;;;;;;;11.43;5.80;;;;;;;11.02;100.00;99766.34;4900901;29;20080;-94
2023/09/22 04:17:00;;;;;;;15.60;6.50;;;;;;;11.22;100.00;99788.63;4902598;29;20339;-95
2023/09/22 04:19:25;;;;;;;16.23;5.90;;;;;;;11.16;100.00;99785.22;4916680;29;20112;-95
2023/09/22 04:21:54;;;;;;;15.63;5.73;;;;;;;11.10;100.00;99790.94;4913272;29;20091;-94
2023/09/22 04:24:20;;;;;;;10.60;5.67;;;;;;;11.02;100.00;99785.13;4912554;29;20303;-95
2023/09/22 04:26:49;;;;;;;10.93;5.90;;;;;;;10.91;100.00;99778.28;4917715;29;20399;-95
2023/09/22 04:29:14;;;;;;;11.43;5.05;;;;;;;10.85;100.00;99780.22;4910499;29;20057;-94
2023/09/22 04:31:39;;;;;;;13.43;5.53;;;;;;;10.90;100.00;99790.88;4916648;29;20020;-94
2023/09/22 04:34:05;;;;;;;10.23;6.00;;;;;;;10.89;100.00;99796.53;4917237;29;20020;-94
2023/09/22 04:36:31;;;;;;;11.57;4.90;;;;;;;10.76;100.00;99787.28;4914586;29;20299;-94
2023/09/22 04:38:57;;;;;;;18.88;6.20;;;;;;;10.76;100.00;99787.28;4914787;29;20074;-94
2023/09/22 04:41:22;;;;;;;15.30;5.47;;;;;;;10.73;100.00;99777.94;4919993;29;20020;-89
2023/09/22 04:43:48;;;;;;;11.20;5.57;;;;;;;10.77;100.00;99793.44;4896887;29;20035;-91
2023/09/22 04:46:15;;;;;;;10.97;5.43;;;;;;;10.70;100.00;99799.94;4896369;29;20016;-91
2023/09/22 04:48:41;;;;;;;8.77;5.18;;;;;;;10.65;100.00;99789.25;4904523;29;20082;-90
2023/09/22 04:51:07;;;;;;;13.38;5.13;;;;;;;10.62;100.00;99789.81;4914250;29;20035;-90
2023/09/22 04:53:33;;;;;;;12.90;5.03;;;;;;;10.58;100.00;99780.78;4909560;29;20016;-89
2023/09/22 04:56:03;;;;;;;9.88;5.15;;;;;;;10.67;100.00;99786.31;4910726;29;20032;-90
2023/09/22 04:58:30;;;;;;;10.88;5.45;;;;;;;10.64;100.00;99785.00;4914769;29;20091;-91
2023/09/22 05:00:57;;;;;;;9.43;4.55;;;;;;;10.63;100.00;99780.72;4906523;29;20036;-91
2023/09/22 05:03:24;;;;;;;13.32;4.70;;;;;;;10.65;100.00;99781.22;4912257;29;20064;-90
2023/09/22 05:05:49;;;;;;;8.93;4.17;;;;;;;10.65;100.00;99802.66;4909806;29;20028;-92
2023/09/22 05:08:14;;;;;;;8.07;4.30;;;;;;;10.57;100.00;99790.69;4911490;29;20035;-92
2023/09/22 05:10:40;;;;;;;6.93;4.40;;;;;;;10.60;100.00;99786.63;4919806;29;20488;-92
2023/09/22 05:13:06;;;;;;;9.50;4.33;;;;;;;10.60;100.00;99792.81;4915489;29;20024;-91
2023/09/22 05:15:32;;;;;;;9.07;3.83;;;;;;;10.60;100.00;99800.03;4914270;29;20087;-91
2023/09/22 05:17:58;;;;;;;11.63;4.05;;;;;;;10.57;100.00;99805.97;4920275;29;20040;-90
2023/09/22 05:20:24;;;;;;;9.97;4.73;;;;;;;10.53;100.00;99813.75;4912751;29;20044;-93
2023/09/22 05:22:50;;;;;;;12.20;3.58;;;;;;;10.44;100.00;99810.09;4898603;29;20031;-94
2023/09/22 05:25:22;;;;;;;8.77;4.20;;;;;;;10.51;100.00;99817.81;4930941;28;20119;-96
2023/09/22 05:27:48;;;;;;;9.98;3.97;;;;;;;10.52;100.00;99819.41;4917216;29;20040;-96
2023/09/22 05:30:21;;;;;;;11.73;3.88;;;;;;;10.57;100.00;99822.81;4926154;29;20051;-96
2023/09/22 05:32:57;;;;;;;11.10;4.07;;;;;;;10.61;100.00;99828.41;4933798;29;20039;-96
2023/09/22 05:35:36;;;;;;;11.23;3.87;;;;;;;10.57;100.00;99828.19;4937192;29;20275;-96
2023/09/22 05:38:49;;;;;;;12.15;3.90;;;;;;;10.55;100.00;99829.56;4921396;29;20047;-96
2023/09/22 05:41:49;;;;;;;15.60;4.25;;;;;;;10.56;100.00;99837.31;4897770;29;20501;-94
2023/09/22 05:46:42;;;;;;;12.88;4.10;;;;;;;10.60;100.00;99849.06;4898623;29;20175;-91
2023/09/22 05:49:07;;;;;;;12.60;4.90;;;;;;;10.59;100.00;99849.34;4933886;29;20463;-91
2023/09/22 05:51:34;;;;;;;8.23;4.07;;;;;;;10.56;100.00;99848.00;4916259;29;20083;-91
2023/09/22 05:53:59;;;;;;;10.10;4.18;;;;;;;10.62;100.00;99848.75;4916578;29;20082;-90
2023/09/22 05:56:25;;;;;;;10.15;4.20;;;;;;;10.70;100.00;99844.66;4933190;29;20500;-87
2023/09/22 05:58:51;;;;;;;9.55;4.00;;;;;;;10.72;100.00;99847.88;4932271;29;20074;-87
2023/09/22 06:01:16;;;;;;;10.17;3.97;;;;;;;10.69;100.00;99843.88;4928427;29;20064;-88
2023/09/22 06:03:44;;;;;;;12.87;4.00;;;;;;;10.72;100.00;99862.09;4917126;29;20432;-92
2023/09/22 06:06:11;;;;;;;7.45;3.75;;;;;;;10.73;100.00;99863.69;4918941;29;20455;-89
2023/09/22 06:08:38;;;;;;;9.90;3.78;;;;;;;10.78;100.00;99865.50;4917517;29;20567;-94
2023/09/22 06:11:04;;;;;;;16.45;4.18;;;;;;;10.79;100.00;99866.28;4900489;29;20039;-90
2023/09/22 06:13:29;;;;;;;11.27;3.97;;;;;;;10.81;100.00;99866.81;4908919;29;20480;-88
2023/09/22 06:15:56;;;;;;;5.87;3.60;;;;;;;10.87;100.00;99885.25;4922354;29;20039;-89
2023/09/22 06:18:22;;;;;;;9.55;3.58;;;;;;;10.81;100.00;99877.53;4917769;29;20054;-91
2023/09/22 06:20:48;;;;;;;8.20;3.50;;;;;;;10.78;100.00;99873.56;4923420;29;20385;-91
2023/09/22 06:23:13;;;;;;;6.57;3.80;;;;;;;10.85;100.00;99867.84;4933721;29;20106;-92
2023/09/22 06:25:39;;;;;;;5.50;3.60;;;;;;;10.83;100.00;99864.66;4919233;29;20172;-89
2023/09/22 06:28:05;;;;;;;9.87;3.67;;;;;;;10.91;100.00;99874.78;4918106;29;20490;-91
2023/09/22 06:30:34;;;;;;;7.60;3.80;;;;;;;10.97;100.00;99878.97;4917963;29;20035;-93
2023/09/22 06:33:01;;;;;;;6.88;3.33;;;;;;;11.04;100.00;99886.72;4916719;29;20039;-89
2023/09/22 06:35:26;;;;;;;4.20;3.17;;;;;;;10.96;100.00;99873.91;4906610;29;20032;-92
2023/09/22 06:37:51;;;;;;;6.60;3.27;;;;;;;11.07;100.00;99888.81;4908829;29;20531;-89
2023/09/22 06:40:17;;;;;;;11.00;3.40;;;;;;;11.12;100.00;99891.44;4917149;29;20031;-86
2023/09/22 06:42:44;;;;;;;9.63;3.53;;;;;;;11.16;100.00;99886.31;4925685;29;20075;-87
2023/09/22 06:45:11;;;;;;;6.38;2.88;;;;;;;11.15;100.00;99898.09;4914422;29;20103;-88
2023/09/22 06:47:43;;;;;;;6.30;2.72;;;;;;;11.24;100.00;99904.47;4914933;29;20492;-86
2023/09/22 06:50:09;;;;;;;7.57;2.92;;;;;;;11.28;100.00;99905.50;4916018;29;20040;-90
2023/09/22 06:52:36;;;;;;;4.73;2.73;;;;;;;11.32;100.00;99909.19;4921881;29;20036;-86
2023/09/22 06:55:01;;;;;;;7.23;2.97;;;;;;;11.33;100.00;99910.78;4915587;29;20322;-87
2023/09/22 06:57:27;;;;;;;10.55;3.08;;;;;;;11.35;100.00;99903.25;4914665;29;20205;-89
2023/09/22 06:59:52;;;;;;;7.70;3.00;;;;;;;11.35;100.00;99903.25;4915523;29;20028;-85
2023/09/22 07:02:19;;;;;;;8.47;3.13;;;;;;;11.41;100.00;99904.00;4914131;29;20023;-91
2023/09/22 07:04:44;;;;;;;4.95;2.72;;;;;;;11.45;100.00;99912.28;4913955;29;20063;-90
2023/09/22 07:07:11;;;;;;;5.77;2.77;;;;;;;11.47;100.00;99907.44;4916401;29;20062;-87
2023/09/22 07:09:36;;;;;;;8.27;2.60;;;;;;;11.49;100.00;99916.00;4914100;29;20059;-85
2023/09/22 07:12:03;;;;;;;7.40;2.42;;;;;;;11.50;100.00;99913.03;4921458;29;20130;-88
2023/09/22 07:14:29;;;;;;;5.47;2.45;;;;;;;11.52;100.00;99915.41;4914528;29;20536;-85
2023/09/22 07:16:54;;;;;;;4.03;2.60;;;;;;;11.59;100.00;99915.09;4913866;29;20031;-86
2023/09/22 07:19:21;;;;;;;5.40;2.30;;;;;;;11.58;100.00;99919.63;4915963;29;20032;-87
2023/09/22 07:21:46;;;;;;;7.33;2.23;;;;;;;11.65;100.00;99920.09;4913951;29;20028;-88
2023/09/22 07:24:12;;;;;;;5.87;2.03;;;;;;;11.66;100.00;99919.00;4919061;29;20310;-87
2023/09/22 07:26:37;;;;;;;4.63;2.27;;;;;;;11.71;100.00;99930.75;4908694;29;20028;-87
2023/09/22 07:29:03;;;;;;;5.20;1.90;;;;;;;11.79;100.00;99938.19;4916814;29;20696;-85
2023/09/22 07:31:30;;;;;;;4.88;2.00;;;;;;;11.82;100.00;99938.41;4921100;29;20099;-86
2023/09/22 07:33:57;;;;;;;5.13;1.97;;;;;;;11.89;100.00;99938.03;4915527;29;20027;-87
2023/09/22 07:36:22;;;;;;;6.03;1.80;;;;;;;11.95;100.00;99949.53;4898101;29;20347;-88
2023/09/22 07:38:48;;;;;;;3.97;1.70;;;;;;;11.99;100.00;99947.09;4920705;29;20032;-87
2023/09/22 07:41:14;;;;;;;5.97;1.60;;;;;;;11.96;100.00;99951.91;4929359;29;20036;-87
2023/09/22 07:43:39;;;;;;;4.75;1.75;;;;;;;12.03;100.00;99961.53;4916252;29;20043;-87
2023/09/22 07:46:06;;;;;;;3.37;1.30;;;;;;;12.06;100.00;99969.81;4916894;29;20020;-89
2023/09/22 07:48:33;;;;;;;4.03;1.48;;;;;;;12.20;100.00;99980.66;4934371;29;20050;-89
2023/09/22 07:51:00;;;;;;;2.80;1.50;;;;;;;12.14;100.00;99963.00;4916879;29;20047;-90
2023/09/22 07:53:25;;;;;;;4.95;1.38;;;;;;;12.20;100.00;99977.97;4919121;29;20032;-94
2023/09/22 07:55:55;;;;;;;3.93;1.23;;;;;;;12.18;100.00;99972.06;4919123;29;20032;-91
2023/09/22 07:58:22;;;;;;;1.20;1.10;;;;;;;12.18;100.00;99974.75;4916809;29;20107;-88
2023/09/22 08:00:47;;;;;;;3.60;1.30;;;;;;;12.27;100.00;99988.34;4928189;29;20039;-86
2023/09/22 08:03:14;;;;;;;2.77;1.10;;;;;;;12.25;100.00;99980.56;4939371;29;20053;-92
2023/09/22 08:05:39;;;;;;;4.93;1.00;;;;;;;12.28;100.00;99981.88;4947356;29;20358;-90
2023/09/22 08:08:06;;;;;;;5.18;1.00;;;;;;;12.28;100.00;99981.88;4935834;29;20083;-93
2023/09/22 08:10:31;;;;;;;3.80;1.02;;;;;;;12.34;100.00;99982.59;4939429;29;20040;-94
2023/09/22 08:12:57;;;;;;;6.10;1.00;;;;;;;12.38;100.00;99975.56;4938592;29;20558;-92
2023/09/22 08:15:23;;;;;;;3.42;1.10;;;;;;;12.49;100.00;99985.06;4932690;29;20008;-93
2023/09/22 08:17:49;;;;;;;3.92;0.90;;;;;;;12.51;100.00;99982.91;4939008;29;20027;-92
2023/09/22 08:20:15;;;;;;;2.20;1.17;;;;;;;12.65;100.00;99991.03;4938162;29;20186;-91
2023/09/22 08:22:42;;;;;;;1.63;0.80;;;;;;;12.67;100.00;99996.91;4936135;29;20048;-94
2023/09/22 08:25:09;;;;;;;3.17;0.60;;;;;;;12.75;100.00;100003.50;4920163;29;20818;-89
2023/09/22 08:27:35;;;;;;;5.13;0.93;;;;;;;12.75;100.00;99998.13;4920549;29;20027;-90
2023/09/22 08:30:09;;;;;;;2.35;0.70;;;;;;;12.84;100.00;99996.38;4936953;29;20444;-91
2023/09/22 08:32:39;;;;;;;2.45;0.80;;;;;;;12.95;100.00;100007.75;4924687;29;20064;-91
2023/09/22 08:35:06;;;;;;;2.17;0.80;;;;;;;12.96;100.00;99984.38;4925593;29;20031;-90
2023/09/22 08:37:33;;;;;;;2.53;0.90;;;;;;;13.11;100.00;100011.00;4938712;29;20291;-88
2023/09/22 08:40:00;;;;;;;2.00;0.70;;;;;;;13.23;100.00;100017.81;4940709;29;20027;-91
2023/09/22 08:42:26;;;;;;;1.05;0.60;;;;;;;13.27;100.00;100019.59;4922695;29;20027;-89
2023/09/22 08:44:51;;;;;;;1.63;1.00;;;;;;;13.37;100.00;100015.94;4928882;29;20559;-93
2023/09/22 08:47:18;;;;;;;4.03;0.80;;;;;;;13.44;100.00;100019.06;4925251;29;20062;-92
2023/09/22 08:49:43;;;;;;;1.77;0.70;;;;;;;13.47;100.00;100007.72;4915157;29;20024;-89
2023/09/22 08:52:09;;;;;;;1.80;0.60;;;;;;;13.51;100.00;100007.13;4901428;29;20028;-89
2023/09/22 08:54:35;;;;;;;3.38;0.82;;;;;;;13.78;100.00;100007.13;4930903;29;20098;-91
2023/09/22 08:57:01;;;;;;;1.33;0.80;;;;;;;13.91;100.00;100010.13;4888126;29;20037;-90
2023/09/22 08:59:27;;;;;;;4.80;0.90;;;;;;;13.95;100.00;100021.09;4905661;29;20115;-92
2023/09/22 09:01:54;;;;;;;3.78;0.80;;;;;;;13.84;100.00;100015.13;4910993;29;20036;-91
2023/09/22 09:04:33;;;;;;;2.05;0.70;;;;;;;13.99;100.00;100032.84;4916856;29;20059;-91
2023/09/22 09:07:01;;;;;;;7.93;1.10;;;;;;;14.13;100.00;100022.88;4908661;29;20039;-91
2023/09/22 09:09:38;;;;;;;1.03;0.60;;;;;;;14.20;100.00;100025.16;4932417;29;20279;-91
2023/09/22 09:12:08;;;;;;;2.72;0.80;;;;;;;14.45;100.00;100031.09;4922155;29;20027;-93
2023/09/22 09:14:33;;;;;;;2.63;0.70;;;;;;;14.60;100.00;100036.19;4935632;29;20030;-94
2023/09/22 09:16:58;;;;;;;4.30;1.10;;;;;;;14.73;100.00;100025.66;4915773;29;20040;-90
2023/09/22 09:19:26;;;;;;;1.87;0.90;;;;;;;14.88;100.00;100022.59;4924677;29;20038;-90
2023/09/22 09:22:10;;;;;;;1.33;0.60;;;;;;;15.08;100.00;100036.72;4919253;29;20036;-90
2023/09/22 09:24:35;;;;;;;1.75;0.60;;;;;;;15.04;100.00;100035.72;4928422;29;20035;-89
2023/09/22 09:27:17;;;;;;;2.30;0.70;;;;;;;15.10;100.00;100048.00;4927827;29;20020;-93
2023/09/22 09:29:46;;;;;;;1.13;0.83;;;;;;;15.01;100.00;100039.84;4918797;29;20039;-89
2023/09/22 09:32:25;;;;;;;2.65;0.60;;;;;;;15.14;100.00;100044.38;4916177;29;20035;-91
2023/09/22 09:34:51;;;;;;;3.35;0.65;;;;;;;15.18;100.00;100046.47;4918565;29;20996;-91
2023/09/22 09:37:17;;;;;;;3.22;0.75;;;;;;;15.23;100.00;100047.13;4932126;29;20391;-90
2023/09/22 09:39:53;;;;;;;3.22;0.75;;;;;;;15.33;100.00;100046.06;4933407;29;20028;-89
2023/09/22 09:42:22;;;;;;;2.00;0.70;;;;;;;15.47;100.00;100046.00;4932784;29;20106;-89
2023/09/22 09:44:56;;;;;;;1.60;0.93;;;;;;;15.44;100.00;100052.00;4921159;29;20384;-96
2023/09/22 09:47:27;;;;;;;2.90;0.82;;;;;;;15.44;100.00;100054.69;4913603;29;20111;-93
2023/09/22 09:49:54;;;;;;;3.00;0.82;;;;;;;15.52;100.00;100048.53;4915746;29;20028;-92
2023/09/22 09:52:25;;;;;;;1.98;0.90;;;;;;;15.67;100.00;100051.97;4918496;29;20038;-94
2023/09/22 09:55:03;;;;;;;2.85;0.90;;;;;;;15.73;100.00;100048.00;4931922;29;20092;-90
2023/09/22 09:57:31;;;;;;;1.67;0.88;;;;;;;15.79;100.00;100054.88;4921169;29;20035;-92
2023/09/22 09:59:57;;;;;;;4.27;1.00;;;;;;;15.74;100.00;100050.41;4928785;29;20084;-91
2023/09/22 10:02:24;;;;;;;5.32;1.00;;;;;;;15.69;100.00;100039.72;4926557;29;20024;-91
2023/09/22 10:04:49;;;;;;;3.17;0.95;;;;;;;15.69;100.00;100052.44;4933137;29;20032;-92
2023/09/22 10:07:15;;;;;;;4.40;0.93;;;;;;;15.65;100.00;100051.47;4952341;29;20020;-92
2023/09/22 10:09:41;;;;;;;1.93;1.00;;;;;;;15.43;100.00;100047.72;4938917;29;20035;-91
2023/09/22 10:12:07;;;;;;;4.38;1.17;;;;;;;15.27;100.00;100050.00;4923350;29;20020;-94
2023/09/22 10:14:46;;;;;;;1.45;1.00;;;;;;;15.18;100.00;100033.75;4915105;29;20052;-92
2023/09/22 10:17:21;;;;;;;2.05;1.15;;;;;;;15.02;100.00;100036.03;4896981;29;20040;-92
2023/09/22 10:19:46;;;;;;;3.55;1.00;;;;;;;14.95;100.00;100039.19;4910271;29;20035;-93
2023/09/22 10:22:12;;;;;;;2.33;1.10;;;;;;;14.93;100.00;100045.97;4939767;29;20089;-90
2023/09/22 10:24:38;;;;;;;2.70;1.20;;;;;;;15.01;100.00;100045.25;4911822;29;20024;-91
2023/09/22 10:27:07;;;;;;;2.25;1.10;;;;;;;15.17;100.00;100048.34;4905257;29;20024;-92
2023/09/22 10:29:33;;;;;;;3.17;0.95;;;;;;;15.36;100.00;100041.94;4919809;29;20024;-90
2023/09/22 10:32:16;;;;;;;2.27;1.10;;;;;;;15.59;100.00;100043.50;4916193;29;20039;-93
2023/09/22 10:34:53;;;;;;;1.70;0.70;;;;;;;15.61;100.00;100040.50;4905127;29;20040;-93
2023/09/22 10:37:23;;;;;;;3.05;0.70;;;;;;;15.69;100.00;100049.75;4910798;29;20472;-88
2023/09/22 10:39:51;;;;;;;2.55;1.10;;;;;;;15.69;100.00;100049.75;4898720;29;20225;-87
2023/09/22 10:42:17;;;;;;;4.63;1.00;;;;;;;15.94;100.00;100039.38;4915613;29;20055;-90
2023/09/22 10:45:03;;;;;;;2.17;0.97;;;;;;;16.20;100.00;100050.25;4908912;29;21353;-88
2023/09/22 10:47:41;;;;;;;2.63;0.90;;;;;;;16.42;100.00;100049.34;4904294;29;20027;-88
2023/09/22 10:50:21;;;;;;;2.33;0.80;;;;;;;16.65;100.00;100039.19;4908023;29;20045;-89
2023/09/22 10:53:06;;;;;;;1.58;0.80;;;;;;;16.66;100.00;100034.56;4890489;29;20095;-86
2023/09/22 10:55:40;;;;;;;2.45;0.88;;;;;;;16.58;100.00;100052.38;4924158;29;20038;-89
2023/09/22 10:58:07;;;;;;;2.10;0.82;;;;;;;16.59;100.00;100045.06;4907383;29;20388;-86
2023/09/22 11:00:40;;;;;;;4.63;1.07;;;;;;;16.75;100.00;100038.06;4912033;29;20039;-87
2023/09/22 11:03:11;;;;;;;1.65;0.68;;;;;;;17.02;100.00;100040.78;4918263;29;20028;-88
2023/09/22 11:05:41;;;;;;;1.13;0.60;;;;;;;17.12;100.00;100053.19;4917118;29;20031;-87
2023/09/22 11:08:13;;;;;;;2.55;0.70;;;;;;;17.17;100.00;100047.59;4917329;29;20024;-87
2023/09/22 11:10:46;;;;;;;2.78;1.17;;;;;;;17.10;99.92;100043.47;4918813;29;20046;-90
2023/09/22 11:13:13;;;;;;;1.77;0.68;;;;;;;17.29;100.00;100050.44;4919902;29;20031;-90
2023/09/22 11:15:49;;;;;;;1.83;1.00;;;;;;;17.52;97.15;100053.72;4932895;29;20038;-90
2023/09/22 11:18:20;;;;;;;1.10;0.73;;;;;;;17.71;96.49;100050.63;4900029;29;20647;-87
2023/09/22 11:20:46;;;;;;;3.28;0.90;;;;;;;17.86;94.91;100056.63;4895938;29;20032;-87
2023/09/22 11:23:11;;;;;;;2.95;1.10;;;;;;;17.92;93.21;100055.31;4915225;29;20028;-86
2023/09/22 11:25:37;;;;;;;1.47;0.80;;;;;;;17.99;95.52;100055.63;4920862;29;20038;-86
2023/09/22 11:28:02;;;;;;;2.87;1.00;;;;;;;18.06;92.04;100065.19;4906619;29;20021;-86
2023/09/22 11:30:28;;;;;;;1.20;0.90;;;;;;;18.25;92.44;100060.13;4900060;29;20139;-87
2023/09/22 11:32:54;;;;;;;2.13;0.97;;;;;;;18.39;90.27;100062.56;4915284;29;20032;-87
2023/09/22 11:35:29;;;;;;;4.68;0.90;;;;;;;18.61;91.08;100071.53;4924634;29;20047;-87
2023/09/22 11:37:57;;;;;;;4.68;0.90;;;;;;;18.76;87.24;100059.28;4917438;29;20115;-88
2023/09/22 11:40:25;;;;;;;2.80;1.00;;;;;;;18.73;85.72;100063.44;4916372;29;20024;-87
2023/09/22 11:42:50;;;;;;;2.00;1.10;;;;;;;18.99;85.24;100067.13;4915735;29;20386;-88
2023/09/22 11:45:22;;;;;;;1.80;1.00;;;;;;;19.25;85.76;100057.91;4929189;29;20551;-90
2023/09/22 11:47:49;;;;;;;2.80;1.10;;;;;;;19.33;82.94;100065.19;4906775;29;20111;-88
2023/09/22 11:50:27;;;;;;;1.93;0.90;;;;;;;19.42;87.38;100071.31;4896319;29;20029;-87
2023/09/22 11:53:08;;;;;;;4.37;1.00;;;;;;;19.30;88.93;100063.13;4922148;29;20291;-89